Time;durP1;ratioP1;P1;durP2;ratioP2;P2;SDS_P1;SDS_P2;PMS_P1;PMS_P2;Temp;Humidity;BMP_temperature;BMP_pressure;BME280_temperature;BME280_humidity;BME280_pressure;Samples;Min_cycle;Max_cycle;Signal;HPM_P1;HPM_P2
2023/11/12 00:00:47;;;;;;;9.75;5.78;;;8.30;99.90;;;;;;5020633;28;20013;-77
2023/11/12 00:03:13;;;;;;;9.75;5.78;;;8.30;99.90;;;;;;5003460;28;20084;-78
2023/11/12 00:05:38;;;;;;;9.18;5.90;;;8.30;99.90;;;;;;5009600;28;20021;-78
2023/11/12 00:08:04;;;;;;;9.55;5.60;;;8.30;99.90;;;;;;4995583;28;20026;-78
2023/11/12 00:10:31;;;;;;;15.40;7.57;;;8.30;99.90;;;;;;5019747;28;20022;-78
2023/11/12 00:12:56;;;;;;;10.27;6.15;;;8.30;99.90;;;;;;4994201;28;20539;-77
2023/11/12 00:15:22;;;;;;;11.55;6.05;;;8.30;99.90;;;;;;5011259;28;20037;-77
2023/11/12 00:17:48;;;;;;;11.15;6.10;;;8.30;99.90;;;;;;4997807;28;20140;-77
2023/11/12 00:20:14;;;;;;;8.88;5.85;;;8.30;99.90;;;;;;5021074;28;20088;-77
2023/11/12 00:22:40;;;;;;;11.68;5.90;;;8.30;99.90;;;;;;5015832;28;20044;-78
2023/11/12 00:25:10;;;;;;;9.07;5.65;;;8.30;99.90;;;;;;5012818;28;20025;-77
2023/11/12 00:27:36;;;;;;;10.32;6.78;;;8.30;99.90;;;;;;5001127;28;20018;-77
2023/11/12 00:30:03;;;;;;;11.00;6.85;;;8.30;99.90;;;;;;5020980;28;20029;-77
2023/11/12 00:32:29;;;;;;;13.65;6.25;;;8.30;99.90;;;;;;4999021;28;20040;-77
2023/11/12 00:34:55;;;;;;;10.88;6.82;;;8.30;99.90;;;;;;4997140;28;20029;-78
2023/11/12 00:37:20;;;;;;;9.50;5.70;;;8.30;99.90;;;;;;5020064;28;20021;-77
2023/11/12 00:39:46;;;;;;;9.20;5.70;;;8.30;99.90;;;;;;5016718;28;20029;-79
2023/11/12 00:42:12;;;;;;;11.20;6.18;;;8.30;99.90;;;;;;4994732;28;20664;-77
2023/11/12 00:44:40;;;;;;;10.82;5.85;;;8.30;99.90;;;;;;5018849;28;20041;-77
2023/11/12 00:47:05;;;;;;;11.85;6.72;;;8.30;99.90;;;;;;5020413;28;20022;-78
2023/11/12 00:49:31;;;;;;;7.63;5.28;;;8.30;99.90;;;;;;5013009;28;20084;-77
2023/11/12 00:51:57;;;;;;;12.70;6.63;;;8.30;99.90;;;;;;5014366;28;20025;-77
2023/11/12 00:54:22;;;;;;;13.23;6.15;;;8.30;99.90;;;;;;5000777;28;20075;-77
2023/11/12 00:56:48;;;;;;;10.48;6.10;;;8.30;99.90;;;;;;5013186;28;20054;-78
2023/11/12 00:59:14;;;;;;;9.15;5.95;;;8.30;99.90;;;;;;5017097;28;20036;-77
2023/11/12 01:01:39;;;;;;;10.20;6.47;;;8.30;99.90;;;;;;5014730;28;20033;-78
2023/11/12 01:04:05;;;;;;;9.48;6.68;;;8.20;99.90;;;;;;5012725;28;20042;-78
2023/11/12 01:06:33;;;;;;;13.05;7.50;;;8.20;99.90;;;;;;5022966;28;20037;-77
2023/11/12 01:08:59;;;;;;;10.57;6.55;;;8.20;99.90;;;;;;5006703;28;20402;-78
2023/11/12 01:11:24;;;;;;;13.18;7.78;;;8.20;99.90;;;;;;5022782;28;20037;-77
2023/11/12 01:13:50;;;;;;;11.50;6.80;;;8.20;99.90;;;;;;5021298;28;20442;-77
2023/11/12 01:16:16;;;;;;;9.63;5.95;;;8.10;99.90;;;;;;4998651;28;20443;-78
2023/11/12 01:18:42;;;;;;;11.77;6.93;;;8.10;99.90;;;;;;5003878;28;20068;-77
2023/11/12 01:21:08;;;;;;;11.38;6.50;;;8.10;99.90;;;;;;5024561;28;20025;-77
2023/11/12 01:23:36;;;;;;;15.30;7.35;;;8.10;99.90;;;;;;4998786;28;20032;-78
2023/11/12 01:26:02;;;;;;;12.80;6.38;;;8.10;99.90;;;;;;4999528;28;20033;-77
2023/11/12 01:28:31;;;;;;;11.02;7.13;;;8.10;99.90;;;;;;5024194;28;20052;-77
2023/11/12 01:31:00;;;;;;;12.73;7.13;;;8.10;99.90;;;;;;5021635;28;20479;-77
2023/11/12 01:33:27;;;;;;;12.88;8.05;;;8.00;99.90;;;;;;4998020;28;20021;-78
2023/11/12 01:35:56;;;;;;;10.43;7.93;;;7.90;99.90;;;;;;5019956;28;20029;-78
2023/11/12 01:38:22;;;;;;;10.07;6.63;;;7.80;99.90;;;;;;5023533;28;20112;-77
2023/11/12 01:40:48;;;;;;;12.18;7.20;;;7.80;99.90;;;;;;5000322;28;20175;-78
2023/11/12 01:43:16;;;;;;;12.05;6.68;;;7.70;99.90;;;;;;5015548;28;20463;-77
2023/11/12 01:45:43;;;;;;;15.88;8.30;;;7.70;99.90;;;;;;5022789;28;20033;-77
2023/11/12 01:48:11;;;;;;;11.60;8.02;;;7.70;99.90;;;;;;5022555;28;20029;-78
2023/11/12 01:50:38;;;;;;;9.85;7.03;;;7.70;99.90;;;;;;5015774;28;20077;-77
2023/11/12 01:53:04;;;;;;;12.45;7.55;;;7.60;99.90;;;;;;5018098;28;20062;-77
2023/11/12 01:55:31;;;;;;;11.90;8.23;;;7.60;99.90;;;;;;5023461;28;20100;-78
2023/11/12 01:57:58;;;;;;;12.52;8.05;;;7.60;99.90;;;;;;5006710;28;20573;-78
2023/11/12 02:00:25;;;;;;;10.70;7.55;;;7.60;99.90;;;;;;5005413;28;20029;-78
2023/11/12 02:02:52;;;;;;;14.02;8.55;;;7.60;99.90;;;;;;5005177;28;20493;-78
2023/11/12 02:05:19;;;;;;;13.45;8.05;;;7.50;99.90;;;;;;5021277;28;20052;-78
2023/11/12 02:07:45;;;;;;;11.65;7.80;;;7.50;99.90;;;;;;5016835;28;20038;-78
2023/11/12 02:10:15;;;;;;;11.18;8.32;;;7.50;99.90;;;;;;5005794;28;20022;-78
2023/11/12 02:12:45;;;;;;;12.88;7.97;;;7.50;99.90;;;;;;5019612;28;20032;-78
2023/11/12 02:15:14;;;;;;;14.17;7.93;;;7.50;99.90;;;;;;5015321;28;20021;-77
2023/11/12 02:17:43;;;;;;;14.68;8.70;;;7.50;99.90;;;;;;5018435;28;20467;-78
2023/11/12 02:20:10;;;;;;;12.10;8.40;;;7.60;99.90;;;;;;5005546;28;20099;-79
2023/11/12 02:22:37;;;;;;;13.82;8.75;;;7.60;99.90;;;;;;5016711;28;20056;-77
2023/11/12 02:25:04;;;;;;;11.85;7.97;;;7.60;99.90;;;;;;4997386;28;20034;-77
2023/11/12 02:27:30;;;;;;;16.88;9.52;;;7.60;99.90;;;;;;5021281;28;20022;-78
2023/11/12 02:29:56;;;;;;;13.50;9.10;;;7.60;99.90;;;;;;5004458;28;20029;-78
2023/11/12 02:32:23;;;;;;;13.32;8.82;;;7.60;99.90;;;;;;5014311;28;20030;-78
2023/11/12 02:34:48;;;;;;;15.45;9.80;;;7.60;99.90;;;;;;5017524;28;20507;-78
2023/11/12 02:37:14;;;;;;;10.52;7.85;;;7.60;99.90;;;;;;5022589;28;20029;-78
2023/11/12 02:39:43;;;;;;;13.18;9.85;;;7.60;99.90;;;;;;5018161;28;20917;-78
2023/11/12 02:42:09;;;;;;;15.27;9.48;;;7.70;99.90;;;;;;5014214;28;20122;-77
2023/11/12 02:44:37;;;;;;;16.75;10.60;;;7.60;99.90;;;;;;5021031;28;20034;-78
2023/11/12 02:47:04;;;;;;;17.13;12.38;;;7.60;99.90;;;;;;5022342;28;20039;-77
2023/11/12 02:49:49;;;;;;;17.35;10.82;;;7.70;99.90;;;;;;5000644;28;20580;-77
2023/11/12 02:52:14;;;;;;;14.93;9.95;;;7.70;99.90;;;;;;5014362;28;20072;-77
2023/11/12 02:54:40;;;;;;;17.35;10.43;;;7.70;99.90;;;;;;5004125;28;20420;-78
2023/11/12 02:57:06;;;;;;;17.70;11.68;;;7.70;99.90;;;;;;5011003;28;20530;-78
2023/11/12 02:59:32;;;;;;;15.07;11.32;;;7.70;99.90;;;;;;5021310;28;20045;-78
2023/11/12 03:01:57;;;;;;;18.23;10.15;;;7.70;99.90;;;;;;5018784;28;20418;-77
2023/11/12 03:04:23;;;;;;;17.30;11.65;;;7.70;99.90;;;;;;5014125;28;20034;-78
2023/11/12 03:06:49;;;;;;;15.43;11.60;;;7.70;99.90;;;;;;5013697;28;20029;-77
2023/11/12 03:09:15;;;;;;;17.80;12.20;;;7.80;99.90;;;;;;5017689;28;20030;-78
2023/11/12 03:11:41;;;;;;;17.85;11.88;;;7.70;99.90;;;;;;5004360;28;20033;-78
2023/11/12 03:14:08;;;;;;;15.18;11.32;;;7.70;99.90;;;;;;4999405;28;20395;-77
2023/11/12 03:16:34;;;;;;;15.10;10.35;;;7.70;99.90;;;;;;5013666;28;20029;-77
2023/11/12 03:19:00;;;;;;;14.45;10.15;;;7.70;99.90;;;;;;5020816;28;20022;-78
2023/11/12 03:21:26;;;;;;;14.27;11.30;;;7.70;99.90;;;;;;5020669;28;20057;-77
2023/11/12 03:23:52;;;;;;;15.10;10.65;;;7.80;99.90;;;;;;5013884;28;20021;-78
2023/11/12 03:26:18;;;;;;;20.88;14.02;;;7.80;99.90;;;;;;4999156;28;20096;-78
2023/11/12 03:28:44;;;;;;;15.38;10.77;;;7.80;99.90;;;;;;5021522;28;20014;-77
2023/11/12 03:31:10;;;;;;;20.67;11.43;;;7.80;99.90;;;;;;4999003;28;20439;-78
2023/11/12 03:33:35;;;;;;;17.73;12.48;;;7.80;99.90;;;;;;5003419;28;20030;-77
2023/11/12 03:36:02;;;;;;;20.48;13.73;;;7.80;99.90;;;;;;5020334;28;20542;-78
2023/11/12 03:38:29;;;;;;;20.30;14.18;;;7.70;99.90;;;;;;5020667;28;20552;-78
2023/11/12 03:41:05;;;;;;;18.88;14.00;;;7.70;99.90;;;;;;5013737;28;20092;-78
2023/11/12 03:43:30;;;;;;;21.35;14.50;;;7.70;99.90;;;;;;5014591;28;20503;-78
2023/11/12 03:45:56;;;;;;;23.77;15.30;;;7.70;99.90;;;;;;5004069;28;20020;-78
2023/11/12 03:48:21;;;;;;;23.00;15.90;;;7.60;99.90;;;;;;5009107;28;20029;-78
2023/11/12 03:50:47;;;;;;;24.77;16.13;;;7.50;99.90;;;;;;5013494;28;20026;-78
2023/11/12 03:53:13;;;;;;;23.50;16.42;;;7.50;99.90;;;;;;5018446;28;20018;-78
2023/11/12 03:55:38;;;;;;;26.95;17.70;;;7.50;99.90;;;;;;5020924;28;20340;-78
2023/11/12 03:58:04;;;;;;;23.65;15.57;;;7.50;99.90;;;;;;5007023;28;20021;-77
2023/11/12 04:00:30;;;;;;;18.52;13.27;;;7.50;99.90;;;;;;5014665;28;20026;-78
2023/11/12 04:02:56;;;;;;;29.52;14.93;;;7.50;99.90;;;;;;5021145;28;20018;-78
2023/11/12 04:05:22;;;;;;;25.83;17.90;;;7.50;99.90;;;;;;4993677;28;20032;-77
2023/11/12 04:07:47;;;;;;;23.98;16.13;;;7.50;99.90;;;;;;5020019;28;20390;-77
2023/11/12 04:10:13;;;;;;;22.20;16.15;;;7.50;99.90;;;;;;5007980;28;20022;-78
2023/11/12 04:12:39;;;;;;;20.55;14.13;;;7.50;99.90;;;;;;5017399;28;20038;-78
2023/11/12 04:15:05;;;;;;;20.83;15.07;;;7.50;99.90;;;;;;5007788;28;20022;-77
2023/11/12 04:17:31;;;;;;;20.30;15.30;;;7.60;99.90;;;;;;4995615;28;20030;-78
2023/11/12 04:19:57;;;;;;;23.63;15.45;;;7.60;99.90;;;;;;5008809;28;20033;-77
2023/11/12 04:22:24;;;;;;;19.92;13.88;;;7.60;99.90;;;;;;5002704;28;20861;-78
2023/11/12 04:24:53;;;;;;;23.17;15.77;;;7.60;99.90;;;;;;5020132;28;20041;-78
2023/11/12 04:27:19;;;;;;;21.05;14.60;;;7.60;99.90;;;;;;5012739;28;20025;-77
2023/11/12 04:29:47;;;;;;;18.45;13.70;;;7.60;99.90;;;;;;4997694;28;20117;-77
2023/11/12 04:32:13;;;;;;;22.00;15.25;;;7.60;99.90;;;;;;4985415;28;20022;-76
2023/11/12 04:34:39;;;;;;;18.58;14.27;;;7.60;99.90;;;;;;5006239;28;20440;-78
2023/11/12 04:37:05;;;;;;;19.33;12.70;;;7.60;99.90;;;;;;5024702;28;20100;-78
2023/11/12 04:39:31;;;;;;;20.00;13.10;;;7.60;99.90;;;;;;5014845;28;20014;-77
2023/11/12 04:41:57;;;;;;;21.33;12.32;;;7.60;99.90;;;;;;5012599;28;20026;-77
2023/11/12 04:44:23;;;;;;;18.08;13.07;;;7.50;99.90;;;;;;4998738;28;20083;-78
2023/11/12 04:46:49;;;;;;;20.27;14.57;;;7.60;99.90;;;;;;4996467;28;20037;-78
2023/11/12 04:49:14;;;;;;;18.92;13.68;;;7.60;99.90;;;;;;5020325;28;20038;-77
2023/11/12 04:51:40;;;;;;;23.08;14.70;;;7.60;99.90;;;;;;5016400;28;20029;-77
2023/11/12 04:54:06;;;;;;;24.77;15.38;;;7.50;99.90;;;;;;5012593;28;20049;-77
2023/11/12 04:56:32;;;;;;;24.33;16.70;;;7.50;99.90;;;;;;5018399;28;20422;-77
2023/11/12 04:58:58;;;;;;;21.90;15.35;;;7.50;99.90;;;;;;5015536;28;20463;-78
2023/11/12 05:01:24;;;;;;;21.65;15.45;;;7.50;99.90;;;;;;4998631;28;20120;-78
2023/11/12 05:03:50;;;;;;;18.38;13.82;;;7.50;99.90;;;;;;4996663;28;20026;-78
2023/11/12 05:06:15;;;;;;;20.08;13.38;;;7.50;99.90;;;;;;5010787;28;20033;-78
2023/11/12 05:08:42;;;;;;;21.77;14.50;;;7.50;99.90;;;;;;5020219;28;20045;-78
2023/11/12 05:11:08;;;;;;;24.58;15.00;;;7.50;99.90;;;;;;5006957;28;20036;-77
2023/11/12 05:13:36;;;;;;;22.88;15.10;;;7.50;99.90;;;;;;5020285;28;20036;-77
2023/11/12 05:16:02;;;;;;;21.52;15.43;;;7.50;99.90;;;;;;4999554;28;20029;-78
2023/11/12 05:18:29;;;;;;;23.05;15.38;;;7.50;99.90;;;;;;5011761;28;20026;-78
2023/11/12 05:20:54;;;;;;;18.55;15.23;;;7.40;99.90;;;;;;5017968;28;20022;-78
2023/11/12 05:23:20;;;;;;;22.58;16.73;;;7.40;99.90;;;;;;5020013;28;20034;-77
2023/11/12 05:25:46;;;;;;;20.85;15.23;;;7.40;99.90;;;;;;5000242;28;20030;-78
2023/11/12 05:28:11;;;;;;;25.23;16.17;;;7.40;99.90;;;;;;4986826;28;20480;-78
2023/11/12 05:30:38;;;;;;;20.25;15.00;;;7.40;99.90;;;;;;5009895;28;20483;-78
2023/11/12 05:33:04;;;;;;;25.30;16.17;;;7.40;99.90;;;;;;5015655;28;20034;-78
2023/11/12 05:35:30;;;;;;;21.45;15.52;;;7.40;99.90;;;;;;5020175;28;20041;-75
2023/11/12 05:37:56;;;;;;;22.08;15.68;;;7.40;99.90;;;;;;4997245;28;20018;-76
2023/11/12 05:40:22;;;;;;;23.92;17.08;;;7.40;99.90;;;;;;5011845;28;20061;-77
2023/11/12 05:42:48;;;;;;;24.35;16.55;;;7.40;99.90;;;;;;5018967;28;20050;-76
2023/11/12 05:45:14;;;;;;;24.08;16.27;;;7.30;99.90;;;;;;4994227;28;20036;-77
2023/11/12 05:47:39;;;;;;;25.73;16.38;;;7.30;99.90;;;;;;5009738;28;20558;-77
2023/11/12 05:50:06;;;;;;;23.00;15.85;;;7.30;99.90;;;;;;4997727;28;20026;-77
2023/11/12 05:52:32;;;;;;;21.05;16.02;;;7.30;99.90;;;;;;5019816;28;20062;-76
2023/11/12 05:54:58;;;;;;;27.95;16.73;;;7.30;99.90;;;;;;4997412;28;20096;-76
2023/11/12 05:57:23;;;;;;;23.60;16.60;;;7.30;99.90;;;;;;5005843;28;20015;-77
2023/11/12 05:59:49;;;;;;;20.95;16.55;;;7.20;99.90;;;;;;5015982;28;20034;-77
2023/11/12 06:02:15;;;;;;;18.65;13.18;;;7.20;99.90;;;;;;5002636;28;20050;-77
2023/11/12 06:04:41;;;;;;;21.15;13.90;;;7.20;99.90;;;;;;5024444;28;20061;-77
2023/11/12 06:07:07;;;;;;;18.35;14.60;;;7.20;99.90;;;;;;5004566;28;20022;-76
2023/11/12 06:09:32;;;;;;;17.95;13.10;;;7.20;99.90;;;;;;5022461;28;20056;-76
2023/11/12 06:11:58;;;;;;;15.30;12.45;;;7.20;99.90;;;;;;5015199;28;20124;-76
2023/11/12 06:14:24;;;;;;;15.15;12.13;;;7.20;99.90;;;;;;5017719;28;20033;-76
2023/11/12 06:16:49;;;;;;;18.58;12.93;;;7.20;99.90;;;;;;5023360;28;20104;-77
2023/11/12 06:19:15;;;;;;;21.67;13.75;;;7.20;99.90;;;;;;5009271;28;20508;-76
2023/11/12 06:21:40;;;;;;;16.40;11.90;;;7.20;99.90;;;;;;5023086;28;20541;-77
2023/11/12 06:24:06;;;;;;;18.90;13.23;;;7.20;99.90;;;;;;5002463;28;20530;-79
2023/11/12 06:26:35;;;;;;;18.50;13.25;;;7.20;99.90;;;;;;4972278;28;20395;-77
2023/11/12 06:29:00;;;;;;;16.23;12.38;;;7.20;99.90;;;;;;4996291;28;20017;-76
2023/11/12 06:31:26;;;;;;;20.33;13.90;;;7.20;99.90;;;;;;5017764;28;20399;-77
2023/11/12 06:33:52;;;;;;;19.13;12.57;;;7.10;99.90;;;;;;5004920;28;20479;-77
2023/11/12 06:36:17;;;;;;;16.95;12.27;;;7.10;99.90;;;;;;5018649;28;20064;-76
2023/11/12 06:38:43;;;;;;;17.10;13.13;;;7.00;99.90;;;;;;5014582;28;20038;-76
2023/11/12 06:41:09;;;;;;;16.92;12.98;;;7.10;99.90;;;;;;5021791;28;20579;-76
2023/11/12 06:43:36;;;;;;;17.33;13.20;;;7.00;99.90;;;;;;5008377;28;20683;-76
2023/11/12 06:46:03;;;;;;;16.98;12.25;;;7.00;99.90;;;;;;5022965;28;20104;-76
2023/11/12 06:48:29;;;;;;;19.42;13.63;;;7.00;99.90;;;;;;5020031;28;20552;-76
2023/11/12 06:50:54;;;;;;;17.52;12.75;;;7.00;99.90;;;;;;5011046;28;20022;-77
2023/11/12 06:53:20;;;;;;;16.05;11.95;;;6.90;99.90;;;;;;5000382;28;20025;-77
2023/11/12 06:55:46;;;;;;;20.88;13.85;;;6.90;99.90;;;;;;4999527;28;20030;-76
2023/11/12 06:58:11;;;;;;;16.75;12.52;;;6.90;99.90;;;;;;5009461;28;20130;-76
2023/11/12 07:00:37;;;;;;;21.30;13.60;;;6.90;99.90;;;;;;5015269;28;20060;-78
2023/11/12 07:03:03;;;;;;;19.92;13.35;;;6.90;99.90;;;;;;5022496;28;20026;-78
2023/11/12 07:05:31;;;;;;;20.13;13.40;;;6.80;99.90;;;;;;5012725;28;20033;-77
2023/11/12 07:08:00;;;;;;;17.95;12.27;;;6.80;99.90;;;;;;5022335;28;20045;-77
2023/11/12 07:10:26;;;;;;;18.05;12.05;;;6.70;99.90;;;;;;4974882;28;20813;-77
2023/11/12 07:12:51;;;;;;;18.98;12.90;;;6.70;99.90;;;;;;5013082;28;20025;-77
2023/11/12 07:15:17;;;;;;;17.83;12.45;;;6.70;99.90;;;;;;4996615;28;20025;-77
2023/11/12 07:17:47;;;;;;;19.10;13.82;;;6.70;99.90;;;;;;5017407;28;20014;-77
2023/11/12 07:20:13;;;;;;;17.53;12.83;;;6.70;99.90;;;;;;5022360;28;20060;-77
2023/11/12 07:22:39;;;;;;;16.05;11.90;;;6.70;99.90;;;;;;4999226;28;20030;-77
2023/11/12 07:25:05;;;;;;;18.27;12.95;;;6.60;99.90;;;;;;4986705;28;20384;-78
2023/11/12 07:27:31;;;;;;;19.05;13.40;;;6.60;99.90;;;;;;5015908;28;20026;-78
2023/11/12 07:29:58;;;;;;;18.80;12.75;;;6.60;99.90;;;;;;4996882;28;20028;-77
2023/11/12 07:32:23;;;;;;;17.13;13.00;;;6.60;99.90;;;;;;5013518;28;20033;-78
2023/11/12 07:34:49;;;;;;;19.75;14.30;;;6.60;99.90;;;;;;4999018;28;20087;-78
2023/11/12 07:37:15;;;;;;;21.95;14.80;;;6.60;99.90;;;;;;5021961;28;20026;-78
2023/11/12 07:39:40;;;;;;;19.42;13.70;;;6.60;99.90;;;;;;4999104;28;20018;-77
2023/11/12 07:42:09;;;;;;;18.75;14.13;;;6.60;99.90;;;;;;4991752;28;20702;-79
2023/11/12 07:44:35;;;;;;;19.17;12.10;;;6.60;99.90;;;;;;5047122;28;20044;-78
2023/11/12 07:47:01;;;;;;;20.85;14.23;;;6.60;99.90;;;;;;5033617;28;20166;-78
2023/11/12 07:49:26;;;;;;;19.48;13.70;;;6.70;99.90;;;;;;5026495;28;20517;-78
2023/11/12 07:51:52;;;;;;;18.42;13.50;;;6.70;99.90;;;;;;5026323;28;20037;-78
2023/11/12 07:54:18;;;;;;;18.75;13.52;;;6.70;99.90;;;;;;5017181;28;20062;-78
2023/11/12 07:56:44;;;;;;;19.33;13.30;;;6.70;99.90;;;;;;5015041;28;20104;-78
2023/11/12 07:59:10;;;;;;;23.15;15.32;;;6.70;99.90;;;;;;5022623;28;20024;-78
2023/11/12 08:01:36;;;;;;;22.77;15.27;;;6.70;99.90;;;;;;5034776;28;20072;-78
2023/11/12 08:04:02;;;;;;;18.00;13.82;;;6.70;99.90;;;;;;5033317;28;20029;-78
2023/11/12 08:06:28;;;;;;;19.88;14.48;;;6.70;99.90;;;;;;5030272;28;20032;-77
2023/11/12 08:08:54;;;;;;;21.58;13.48;;;6.80;99.90;;;;;;5017093;28;20108;-79
2023/11/12 08:11:20;;;;;;;22.77;14.10;;;6.80;99.90;;;;;;5025762;28;20128;-78
2023/11/12 08:13:46;;;;;;;19.17;14.55;;;6.80;99.90;;;;;;5022119;28;20021;-78
2023/11/12 08:16:12;;;;;;;21.70;14.73;;;6.90;99.90;;;;;;5008695;28;20022;-78
2023/11/12 08:18:39;;;;;;;20.70;15.68;;;6.90;99.90;;;;;;5005138;28;20025;-78
2023/11/12 08:21:05;;;;;;;20.88;14.63;;;6.90;99.90;;;;;;5017961;28;20030;-78
2023/11/12 08:23:31;;;;;;;24.15;15.68;;;7.00;99.90;;;;;;5016850;28;20076;-78
2023/11/12 08:25:59;;;;;;;19.55;14.00;;;7.00;99.90;;;;;;5007841;28;20021;-78
2023/11/12 08:28:25;;;;;;;21.92;15.48;;;7.00;99.90;;;;;;5019055;28;20022;-78
2023/11/12 08:30:50;;;;;;;21.67;14.77;;;7.00;99.90;;;;;;5031429;28;20063;-78
2023/11/12 08:33:16;;;;;;;19.40;13.75;;;7.10;99.90;;;;;;5031716;28;20506;-78
2023/11/12 08:35:42;;;;;;;28.83;16.38;;;7.10;99.90;;;;;;5032310;28;20121;-79
2023/11/12 08:38:08;;;;;;;23.83;15.07;;;7.10;99.90;;;;;;5012774;28;20113;-78
2023/11/12 08:40:35;;;;;;;23.17;16.48;;;7.20;99.90;;;;;;5023159;28;20490;-78
2023/11/12 08:43:01;;;;;;;33.83;19.02;;;7.20;99.90;;;;;;5012005;28;20088;-78
2023/11/12 08:45:27;;;;;;;32.63;19.42;;;7.20;99.90;;;;;;5024547;28;20049;-79
2023/11/12 08:47:53;;;;;;;28.15;16.30;;;7.20;99.90;;;;;;5016941;28;20095;-79
2023/11/12 08:50:19;;;;;;;26.65;16.85;;;7.20;99.90;;;;;;5001738;28;20052;-79
2023/11/12 08:52:46;;;;;;;21.95;15.75;;;7.20;99.90;;;;;;5031382;28;20437;-79
2023/11/12 08:55:11;;;;;;;27.65;16.88;;;7.20;99.90;;;;;;5037379;28;20040;-79
2023/11/12 08:57:37;;;;;;;26.15;16.25;;;7.30;99.90;;;;;;5011257;28;20022;-79
2023/11/12 09:00:06;;;;;;;25.38;17.25;;;7.30;99.90;;;;;;5035563;28;20029;-78
2023/11/12 09:02:32;;;;;;;25.17;16.45;;;7.30;99.90;;;;;;5032319;28;20075;-78
2023/11/12 09:04:58;;;;;;;23.95;15.93;;;7.40;99.90;;;;;;5040320;28;20029;-79
2023/11/12 09:07:24;;;;;;;26.50;15.30;;;7.40;99.90;;;;;;5026643;28;20472;-79
2023/11/12 09:09:49;;;;;;;24.00;16.13;;;7.40;99.90;;;;;;5040014;28;20032;-79
2023/11/12 09:12:15;;;;;;;24.30;16.70;;;7.50;99.90;;;;;;5020940;28;20190;-79
2023/11/12 09:14:41;;;;;;;19.23;14.68;;;7.50;99.90;;;;;;5033076;28;20382;-79
2023/11/12 09:17:06;;;;;;;25.40;14.68;;;7.50;99.90;;;;;;5027351;28;20022;-79
2023/11/12 09:19:32;;;;;;;21.55;14.65;;;7.60;99.90;;;;;;5008275;28;20018;-78
2023/11/12 09:21:58;;;;;;;26.98;16.20;;;7.60;99.90;;;;;;5030001;28;20067;-80
2023/11/12 09:24:24;;;;;;;23.50;16.05;;;7.70;99.90;;;;;;5018854;28;20559;-78
2023/11/12 09:26:50;;;;;;;21.45;14.45;;;7.70;99.90;;;;;;5026542;28;20038;-78
2023/11/12 09:29:16;;;;;;;23.02;16.60;;;7.70;99.90;;;;;;5033672;28;20017;-78
2023/11/12 09:31:41;;;;;;;19.75;13.65;;;7.80;99.90;;;;;;5014967;28;20036;-78
2023/11/12 09:34:07;;;;;;;21.00;14.48;;;7.80;99.90;;;;;;5034237;28;20033;-79
2023/11/12 09:36:33;;;;;;;23.25;14.60;;;7.80;99.90;;;;;;5009679;28;20056;-78
2023/11/12 09:39:00;;;;;;;23.02;14.48;;;7.80;99.90;;;;;;5026207;28;20025;-79
2023/11/12 09:41:27;;;;;;;20.35;14.52;;;7.90;99.90;;;;;;5027013;28;20104;-79
2023/11/12 09:43:55;;;;;;;19.40;13.35;;;8.00;99.90;;;;;;5009542;28;20037;-79
2023/11/12 09:46:24;;;;;;;22.45;14.27;;;8.00;99.90;;;;;;5028563;28;20033;-78
2023/11/12 09:48:52;;;;;;;23.23;14.65;;;8.00;99.90;;;;;;5043747;28;20568;-79
2023/11/12 09:51:18;;;;;;;22.35;15.00;;;8.10;99.90;;;;;;5028900;28;20029;-78
2023/11/12 09:53:47;;;;;;;16.60;11.75;;;8.10;99.90;;;;;;5042112;28;20123;-78
2023/11/12 09:56:13;;;;;;;20.67;12.73;;;8.10;99.90;;;;;;5012335;28;20479;-78
2023/11/12 09:58:47;;;;;;;16.70;12.57;;;8.20;99.90;;;;;;5011297;28;20028;-77
2023/11/12 10:01:13;;;;;;;22.73;12.65;;;8.30;99.90;;;;;;5011658;28;20025;-78
2023/11/12 10:03:41;;;;;;;22.05;12.38;;;8.30;99.90;;;;;;5029274;28;20036;-77
2023/11/12 10:06:10;;;;;;;15.95;11.68;;;8.30;99.90;;;;;;5033285;28;20020;-77
2023/11/12 10:08:36;;;;;;;16.25;11.75;;;8.40;99.90;;;;;;5011290;28;20022;-77
2023/11/12 10:11:20;;;;;;;14.88;10.80;;;8.50;99.90;;;;;;5029582;28;20057;-77
2023/11/12 10:13:46;;;;;;;17.38;11.50;;;8.50;99.90;;;;;;5035363;28;20033;-77
2023/11/12 10:16:25;;;;;;;15.65;11.57;;;8.50;99.90;;;;;;5010152;28;20116;-77
2023/11/12 10:18:52;;;;;;;15.90;11.02;;;8.60;99.90;;;;;;5028503;28;20053;-78
2023/11/12 10:21:21;;;;;;;17.58;11.45;;;8.70;99.90;;;;;;5022434;28;20014;-77
2023/11/12 10:23:46;;;;;;;12.35;9.45;;;8.90;99.90;;;;;;5028349;28;20028;-77
2023/11/12 10:26:14;;;;;;;16.30;10.00;;;9.10;99.90;;;;;;5014618;28;20025;-78
2023/11/12 10:28:40;;;;;;;15.40;8.68;;;9.20;99.90;;;;;;5005590;28;20032;-78
2023/11/12 10:31:09;;;;;;;11.75;8.35;;;9.40;99.90;;;;;;5029022;28;20509;-77
2023/11/12 10:33:36;;;;;;;8.52;6.35;;;9.50;99.90;;;;;;5008885;28;20033;-77
2023/11/12 10:36:10;;;;;;;11.55;6.20;;;9.70;99.90;;;;;;5035709;28;20016;-77
2023/11/12 10:38:48;;;;;;;10.63;6.10;;;9.70;99.90;;;;;;5016107;28;20574;-77
2023/11/12 10:41:14;;;;;;;9.82;6.20;;;9.80;99.90;;;;;;5028824;28;20025;-77
2023/11/12 10:43:40;;;;;;;10.63;5.82;;;9.90;99.90;;;;;;5010061;28;20625;-78
2023/11/12 10:46:09;;;;;;;9.90;6.40;;;9.90;99.90;;;;;;5014650;28;20028;-77
2023/11/12 10:48:37;;;;;;;11.18;6.05;;;10.00;99.90;;;;;;5028095;28;20483;-77
2023/11/12 10:51:05;;;;;;;9.10;6.30;;;10.00;99.90;;;;;;5027638;28;20056;-77
2023/11/12 10:53:32;;;;;;;8.20;5.55;;;10.10;99.90;;;;;;5020594;28;20038;-77
2023/11/12 10:56:02;;;;;;;9.80;6.28;;;10.10;99.90;;;;;;5008472;28;20052;-77
2023/11/12 10:58:31;;;;;;;8.90;6.55;;;10.10;99.90;;;;;;5026292;28;20095;-77
2023/11/12 11:01:03;;;;;;;10.38;6.40;;;10.20;99.90;;;;;;5030716;28;20479;-77
2023/11/12 11:03:31;;;;;;;9.43;6.45;;;10.20;99.90;;;;;;5020858;28;20076;-77
2023/11/12 11:06:01;;;;;;;9.52;6.68;;;10.30;99.90;;;;;;5042678;28;20040;-77
2023/11/12 11:08:28;;;;;;;10.90;7.20;;;10.40;99.90;;;;;;5012077;28;20561;-77
2023/11/12 11:10:54;;;;;;;9.05;6.75;;;10.40;99.90;;;;;;5010475;28;20041;-77
2023/11/12 11:13:21;;;;;;;11.32;6.25;;;10.40;99.90;;;;;;5025110;28;20088;-77
2023/11/12 11:15:52;;;;;;;10.23;6.57;;;10.40;99.90;;;;;;5014287;28;20022;-77
2023/11/12 11:18:33;;;;;;;10.52;7.47;;;10.40;99.90;;;;;;5022219;28;20025;-77
2023/11/12 11:21:17;;;;;;;12.07;7.75;;;10.50;99.90;;;;;;5028304;28;20096;-77
2023/11/12 11:23:52;;;;;;;9.48;7.32;;;10.50;99.90;;;;;;5030282;28;20022;-77
2023/11/12 11:26:25;;;;;;;13.38;7.10;;;10.50;99.90;;;;;;5026492;28;20116;-76
2023/11/12 11:29:17;;;;;;;8.90;6.80;;;10.60;99.90;;;;;;5009674;28;20029;-76
2023/11/12 11:31:54;;;;;;;8.52;6.78;;;10.60;99.90;;;;;;5038142;28;20076;-77
2023/11/12 11:34:44;;;;;;;11.80;7.40;;;10.60;99.90;;;;;;5010980;28;20064;-77
2023/11/12 11:37:10;;;;;;;12.63;8.25;;;10.60;99.90;;;;;;5026807;28;20823;-77
2023/11/12 11:39:37;;;;;;;13.55;8.32;;;10.70;99.90;;;;;;5039005;28;20049;-77
2023/11/12 11:42:06;;;;;;;12.70;8.10;;;10.80;99.90;;;;;;5022564;28;20112;-77
2023/11/12 11:44:39;;;;;;;12.23;8.57;;;10.90;99.90;;;;;;5016781;28;20033;-77
2023/11/12 11:47:09;;;;;;;12.25;7.82;;;10.90;99.90;;;;;;5024646;28;20101;-76
2023/11/12 11:49:35;;;;;;;9.88;7.80;;;10.90;99.90;;;;;;5009510;28;20036;-77
2023/11/12 11:52:01;;;;;;;11.95;8.93;;;11.00;99.90;;;;;;5027841;28;20048;-78
2023/11/12 11:54:28;;;;;;;11.52;8.55;;;11.10;99.90;;;;;;5039831;28;20022;-77
2023/11/12 11:56:57;;;;;;;10.35;7.47;;;11.10;99.90;;;;;;5018376;28;20029;-77
2023/11/12 11:59:24;;;;;;;11.38;7.65;;;11.20;99.90;;;;;;5024597;28;20037;-77
2023/11/12 12:01:53;;;;;;;12.15;7.55;;;11.20;99.90;;;;;;5009842;28;20044;-77
2023/11/12 12:04:19;;;;;;;11.07;7.47;;;11.30;99.90;;;;;;5026768;28;20037;-77
2023/11/12 12:06:46;;;;;;;11.50;6.97;;;11.30;99.90;;;;;;5031188;28;20031;-77
2023/11/12 12:09:19;;;;;;;9.77;7.13;;;11.30;99.90;;;;;;5036696;28;20036;-77
2023/11/12 12:11:51;;;;;;;9.88;7.00;;;11.40;99.90;;;;;;5009479;28;20403;-77
2023/11/12 12:14:18;;;;;;;10.52;7.50;;;11.40;99.90;;;;;;5036449;28;20025;-77
2023/11/12 12:16:44;;;;;;;10.30;7.57;;;11.50;99.90;;;;;;5030654;28;20030;-77
2023/11/12 12:19:22;;;;;;;10.90;8.02;;;11.50;99.90;;;;;;5027109;28;20018;-77
2023/11/12 12:21:50;;;;;;;9.55;6.80;;;11.40;99.90;;;;;;5041193;28;20064;-77
2023/11/12 12:24:17;;;;;;;12.45;7.20;;;11.40;99.90;;;;;;5034743;28;20074;-77
2023/11/12 12:26:44;;;;;;;12.50;7.50;;;11.40;99.90;;;;;;5027603;28;20406;-77
2023/11/12 12:29:14;;;;;;;10.00;7.47;;;11.40;99.90;;;;;;5040123;28;20021;-77
2023/11/12 12:31:40;;;;;;;10.90;7.63;;;11.40;99.90;;;;;;5040197;28;20383;-77
2023/11/12 12:34:07;;;;;;;8.27;6.50;;;11.50;99.90;;;;;;5032278;28;20101;-77
2023/11/12 12:36:36;;;;;;;11.02;7.65;;;11.60;99.90;;;;;;5033099;28;20141;-77
2023/11/12 12:39:05;;;;;;;10.82;7.63;;;11.60;99.90;;;;;;5008627;28;20021;-77